Tusculum College, Tennessee
Current Conditions -  °F | °C
As of 4:15 AM on Friday 19 Dec 2014 (Local Time) from KMOR Reporting Station
Overcast Overcast  
Wind Chill: 36°   Ceiling: 4000
Heat Index: 36°   Visibility: 10mi
Dew Point: 25°   Wind: 0mph
Humidity: 65%   Direction: NA
Pressure: 30.16"   Gusts: NA
Location:  36.1512°N, 82.8404°W
Report Text: KMOR 190915Z AUTO 00000KT 10SM OVC040 02/M04 A3016 RMK
Loading
Personal Weather Stations






























Interactive Weather Map New forecast layout! Learn more

10-Day Weather Forecast

Advertisements
Track Severe Weather on mobile